Time;durP1;ratioP1;P1;durP2;ratioP2;P2;SDS_P1;SDS_P2;PMS_P1;PMS_P2;Temp;Humidity;BMP_temperature;BMP_pressure;BME280_temperature;BME280_humidity;BME280_pressure;Samples;Min_cycle;Max_cycle;Signal;HPM_P1;HPM_P2
2022/12/10 00:01:13;;;;;;;17.95;8.85;;;;;;;;;;5096111;28;20164;-52
2022/12/10 00:03:39;;;;;;;21.10;10.32;;;;;;;;;;5104164;28;20031;-51
2022/12/10 00:06:06;;;;;;;21.27;9.30;;;;;;;;;;5105297;28;20035;-51
2022/12/10 00:08:33;;;;;;;16.25;8.00;;;;;;;;;;5104229;28;20031;-52
2022/12/10 00:10:59;;;;;;;17.10;8.68;;;;;;;;;;5105198;28;20638;-53
2022/12/10 00:13:26;;;;;;;16.88;8.45;;;;;;;;;;5105455;28;20028;-52
2022/12/10 00:15:52;;;;;;;15.35;8.40;;;;;;;;;;5086286;28;20028;-53
2022/12/10 00:18:18;;;;;;;17.23;8.88;;;;;;;;;;5085317;28;20016;-50
2022/12/10 00:20:44;;;;;;;17.80;8.88;;;;;;;;;;5085162;28;20028;-53
2022/12/10 00:23:11;;;;;;;19.90;9.18;;;;;;;;;;5084651;28;20031;-50
2022/12/10 00:25:38;;;;;;;20.55;10.70;;;;;;;;;;5085211;28;20111;-52
2022/12/10 00:28:04;;;;;;;21.65;10.05;;;;;;;;;;5084719;28;20016;-52
2022/12/10 00:30:33;;;;;;;18.98;9.70;;;;;;;;;;5084577;28;20032;-50
2022/12/10 00:33:00;;;;;;;21.55;10.93;;;;;;;;;;5088903;28;20121;-53
2022/12/10 00:35:27;;;;;;;21.67;10.20;;;;;;;;;;5089317;28;20028;-52
2022/12/10 00:37:53;;;;;;;19.27;9.23;;;;;;;;;;5109466;28;20024;-52
2022/12/10 00:40:19;;;;;;;19.75;9.07;;;;;;;;;;5108416;28;20054;-53
2022/12/10 00:42:45;;;;;;;17.60;9.35;;;;;;;;;;5109206;28;20027;-50
2022/12/10 00:45:11;;;;;;;18.88;8.93;;;;;;;;;;5108841;28;20392;-51
2022/12/10 00:47:37;;;;;;;18.50;8.68;;;;;;;;;;5108994;28;20047;-52
2022/12/10 00:50:03;;;;;;;19.58;9.05;;;;;;;;;;5106507;28;20024;-52
2022/12/10 00:52:29;;;;;;;18.30;8.63;;;;;;;;;;5109023;28;20020;-52
2022/12/10 00:54:55;;;;;;;17.83;8.57;;;;;;;;;;5105261;28;20194;-51
2022/12/10 00:57:22;;;;;;;16.73;8.80;;;;;;;;;;5108479;28;20562;-52
2022/12/10 00:59:48;;;;;;;15.35;8.82;;;;;;;;;;5109171;28;20027;-53
2022/12/10 01:02:14;;;;;;;16.65;8.65;;;;;;;;;;5095401;28;20615;-49
2022/12/10 06:13:48;;;;;;;14.55;9.50;;;;;;;;;;5109367;28;20507;-52
2022/12/10 06:16:14;;;;;;;14.85;9.48;;;;;;;;;;5101809;28;20028;-49
2022/12/10 06:18:41;;;;;;;13.25;8.55;;;;;;;;;;5089716;28;20042;-50
2022/12/10 06:21:09;;;;;;;15.25;9.88;;;;;;;;;;5089448;28;20125;-52
2022/12/10 06:23:36;;;;;;;14.07;8.85;;;;;;;;;;5089557;28;20403;-50
2022/12/10 06:26:06;;;;;;;13.57;9.10;;;;;;;;;;5089317;28;20036;-49
2022/12/10 06:28:32;;;;;;;13.88;9.27;;;;;;;;;;5089532;28;20028;-49
2022/12/10 06:30:59;;;;;;;14.43;9.18;;;;;;;;;;5088725;28;20032;-50
2022/12/10 06:33:25;;;;;;;15.35;9.38;;;;;;;;;;5089379;28;20024;-50
2022/12/10 06:35:51;;;;;;;15.43;9.30;;;;;;;;;;5089579;28;20051;-49
2022/12/10 06:38:17;;;;;;;16.13;10.13;;;;;;;;;;5089505;28;20689;-49
2022/12/10 06:40:43;;;;;;;17.27;10.65;;;;;;;;;;5088613;28;20682;-50
2022/12/10 06:43:09;;;;;;;14.80;9.50;;;;;;;;;;5089430;28;20058;-49
2022/12/10 06:45:39;;;;;;;16.80;10.30;;;;;;;;;;5089135;28;20461;-51
2022/12/10 06:48:05;;;;;;;14.07;9.40;;;;;;;;;;5088893;28;20032;-48
2022/12/10 06:50:31;;;;;;;13.57;8.95;;;;;;;;;;5089045;28;20099;-49
2022/12/10 06:52:57;;;;;;;15.43;9.95;;;;;;;;;;5088977;28;20017;-49
2022/12/10 06:55:23;;;;;;;17.13;10.07;;;;;;;;;;5088443;28;20031;-52
2022/12/10 06:57:53;;;;;;;16.58;10.20;;;;;;;;;;5089065;28;20024;-51
2022/12/10 07:00:19;;;;;;;16.65;11.05;;;;;;;;;;5088701;28;20140;-48
2022/12/10 07:02:45;;;;;;;17.52;11.00;;;;;;;;;;5090224;28;20052;-51
2022/12/10 07:05:11;;;;;;;16.30;11.15;;;;;;;;;;5101226;28;20580;-49
2022/12/10 07:07:37;;;;;;;17.10;10.60;;;;;;;;;;5103737;27;20059;-49
2022/12/10 07:10:04;;;;;;;15.88;10.73;;;;;;;;;;5129440;27;20027;-49
2022/12/10 07:12:30;;;;;;;15.70;9.80;;;;;;;;;;5115786;27;20077;-50
2022/12/10 07:14:56;;;;;;;15.38;9.77;;;;;;;;;;5094861;28;20499;-50
2022/12/10 07:17:22;;;;;;;18.25;10.35;;;;;;;;;;5101028;28;20031;-50
2022/12/10 07:19:49;;;;;;;18.52;11.50;;;;;;;;;;5101015;27;20035;-50
2022/12/10 07:22:15;;;;;;;17.20;10.38;;;;;;;;;;5119963;27;20026;-50
2022/12/10 07:24:41;;;;;;;19.75;12.80;;;;;;;;;;5105901;27;20246;-52
2022/12/10 07:27:07;;;;;;;23.15;13.88;;;;;;;;;;5129049;27;20485;-50
2022/12/10 07:29:34;;;;;;;23.63;13.80;;;;;;;;;;5107925;27;20024;-50
2022/12/10 07:32:00;;;;;;;22.63;13.43;;;;;;;;;;5094315;28;20035;-49
2022/12/10 07:34:26;;;;;;;22.33;12.95;;;;;;;;;;5098289;28;20028;-51
2022/12/10 07:36:52;;;;;;;23.52;13.40;;;;;;;;;;5108757;28;20119;-48
2022/12/10 07:39:18;;;;;;;25.02;14.70;;;;;;;;;;5108665;28;20035;-49
2022/12/10 07:41:45;;;;;;;24.77;14.48;;;;;;;;;;5104793;28;20503;-51
2022/12/10 07:44:12;;;;;;;23.77;13.23;;;;;;;;;;5069358;28;20352;-50
2022/12/10 07:46:38;;;;;;;25.13;13.90;;;;;;;;;;5087791;28;20028;-48
2022/12/10 07:49:05;;;;;;;23.92;13.25;;;;;;;;;;5088210;28;20027;-50
2022/12/10 07:51:31;;;;;;;21.67;12.85;;;;;;;;;;5095259;28;20027;-51
2022/12/10 07:53:57;;;;;;;19.65;12.35;;;;;;;;;;5091005;28;20028;-49
2022/12/10 07:56:24;;;;;;;23.23;13.60;;;;;;;;;;5088366;28;20028;-51
2022/12/10 07:58:50;;;;;;;20.58;12.30;;;;;;;;;;5107314;28;20028;-50
2022/12/10 08:01:18;;;;;;;20.85;12.32;;;;;;;;;;5107204;28;20066;-51
2022/12/10 08:03:44;;;;;;;19.58;11.10;;;;;;;;;;5108431;28;20529;-49
2022/12/10 08:06:13;;;;;;;17.45;10.90;;;;;;;;;;5108336;28;20026;-48
2022/12/10 08:08:39;;;;;;;15.50;10.23;;;;;;;;;;5107206;28;20077;-52
2022/12/10 08:11:06;;;;;;;17.10;10.38;;;;;;;;;;5091436;28;20034;-49
2022/12/10 08:13:32;;;;;;;17.38;10.63;;;;;;;;;;5096417;28;20028;-51
2022/12/10 08:16:18;;;;;;;15.27;9.90;;;;;;;;;;5095347;28;20051;-52
2022/12/10 08:18:44;;;;;;;17.65;10.35;;;;;;;;;;5104706;28;20079;-51
2022/12/10 08:21:12;;;;;;;18.35;10.80;;;;;;;;;;5093593;28;20055;-48
2022/12/10 08:23:39;;;;;;;16.90;10.52;;;;;;;;;;5107462;28;20103;-49
2022/12/10 08:26:05;;;;;;;18.50;10.95;;;;;;;;;;5100712;28;20039;-51
2022/12/10 08:28:33;;;;;;;16.92;10.38;;;;;;;;;;5086324;28;20081;-48
2022/12/10 08:30:59;;;;;;;13.05;8.93;;;;;;;;;;5086181;28;20024;-52
2022/12/10 08:33:25;;;;;;;17.27;9.93;;;;;;;;;;5097451;28;20412;-52
2022/12/10 08:35:51;;;;;;;17.42;10.95;;;;;;;;;;5106819;28;20471;-51
2022/12/10 08:38:17;;;;;;;16.27;10.77;;;;;;;;;;5099862;28;20031;-49
2022/12/10 08:40:44;;;;;;;17.30;9.75;;;;;;;;;;5096880;28;20040;-49
2022/12/10 08:43:10;;;;;;;21.23;12.30;;;;;;;;;;5104199;28;20023;-50
2022/12/10 08:45:36;;;;;;;20.20;12.07;;;;;;;;;;5107460;28;20429;-48
2022/12/10 08:48:02;;;;;;;20.95;12.73;;;;;;;;;;5107528;28;20024;-52
2022/12/10 08:50:29;;;;;;;19.50;11.82;;;;;;;;;;5103470;28;20024;-50
2022/12/10 08:52:55;;;;;;;18.40;11.38;;;;;;;;;;5105309;28;20019;-49
2022/12/10 08:55:21;;;;;;;18.15;11.57;;;;;;;;;;5109525;28;20020;-51
2022/12/10 08:57:47;;;;;;;20.42;12.77;;;;;;;;;;5111559;28;20027;-48
2022/12/10 09:00:13;;;;;;;18.25;11.10;;;;;;;;;;5111328;28;20450;-51
2022/12/10 09:02:39;;;;;;;19.27;11.23;;;;;;;;;;5110968;28;20122;-51
2022/12/10 09:05:07;;;;;;;18.45;10.82;;;;;;;;;;5111409;28;20106;-49
2022/12/10 09:07:33;;;;;;;17.83;10.43;;;;;;;;;;5111291;28;20016;-52
2022/12/10 09:09:59;;;;;;;17.00;10.77;;;;;;;;;;5111435;28;20034;-49
2022/12/10 09:12:26;;;;;;;18.20;10.70;;;;;;;;;;5107368;28;20031;-49
2022/12/10 09:14:52;;;;;;;20.08;11.25;;;;;;;;;;5101425;28;20031;-51
2022/12/10 09:17:18;;;;;;;17.63;11.00;;;;;;;;;;5110584;28;20422;-52
2022/12/10 09:19:44;;;;;;;16.85;9.98;;;;;;;;;;5095837;28;20035;-48
2022/12/10 09:22:11;;;;;;;18.92;11.40;;;;;;;;;;5109549;28;20042;-51
2022/12/10 09:24:37;;;;;;;17.05;9.88;;;;;;;;;;5109664;28;20028;-51
2022/12/10 09:27:03;;;;;;;19.38;11.02;;;;;;;;;;5108459;28;20083;-51
2022/12/10 09:29:30;;;;;;;18.88;11.45;;;;;;;;;;5089036;28;20451;-49
2022/12/10 09:31:56;;;;;;;19.70;11.82;;;;;;;;;;5089064;28;20020;-47
2022/12/10 09:34:22;;;;;;;18.25;10.57;;;;;;;;;;5089110;28;20085;-50
2022/12/10 09:36:48;;;;;;;19.65;11.98;;;;;;;;;;5088715;28;20021;-49
2022/12/10 09:39:14;;;;;;;21.95;12.65;;;;;;;;;;5089121;28;20031;-47
2022/12/10 09:41:41;;;;;;;22.13;12.45;;;;;;;;;;5088882;28;20035;-52
2022/12/10 09:44:17;;;;;;;23.63;14.48;;;;;;;;;;5088176;28;20111;-48
2022/12/10 09:46:55;;;;;;;20.77;12.43;;;;;;;;;;5088797;28;20028;-51
2022/12/10 09:49:34;;;;;;;23.58;13.77;;;;;;;;;;5089308;28;20020;-49
2022/12/10 09:52:02;;;;;;;22.65;12.85;;;;;;;;;;5088579;28;20032;-50
2022/12/10 09:54:30;;;;;;;22.52;12.73;;;;;;;;;;5088673;28;20031;-51
2022/12/10 09:56:58;;;;;;;24.30;13.18;;;;;;;;;;5088842;28;20032;-49
2022/12/10 09:59:25;;;;;;;21.48;12.55;;;;;;;;;;5088907;28;20442;-49
2022/12/10 10:01:59;;;;;;;21.77;12.52;;;;;;;;;;5088473;28;20515;-50
2022/12/10 10:04:26;;;;;;;19.60;11.93;;;;;;;;;;5088735;28;20031;-52
2022/12/10 10:06:54;;;;;;;18.27;11.55;;;;;;;;;;5087919;28;20052;-52
2022/12/10 10:09:21;;;;;;;22.15;12.35;;;;;;;;;;5088371;28;20107;-50
2022/12/10 10:11:48;;;;;;;20.42;12.32;;;;;;;;;;5088451;28;20471;-51
2022/12/10 10:14:26;;;;;;;22.02;12.35;;;;;;;;;;5087915;28;20047;-50
2022/12/10 10:17:04;;;;;;;24.30;13.18;;;;;;;;;;5088470;28;20304;-52
2022/12/10 10:19:33;;;;;;;29.00;16.40;;;;;;;;;;5088301;28;20027;-51
2022/12/10 10:22:00;;;;;;;27.80;15.35;;;;;;;;;;5088068;28;20062;-52
2022/12/10 10:24:28;;;;;;;27.17;15.43;;;;;;;;;;5088698;28;20020;-51
2022/12/10 10:26:58;;;;;;;29.17;16.25;;;;;;;;;;5088505;28;20402;-49
2022/12/10 10:29:26;;;;;;;26.90;14.85;;;;;;;;;;5088522;28;20038;-49
2022/12/10 10:32:10;;;;;;;26.98;15.13;;;;;;;;;;5088114;28;20499;-51
2022/12/10 10:34:39;;;;;;;28.40;14.82;;;;;;;;;;5087891;28;20024;-48
2022/12/10 10:37:05;;;;;;;28.55;15.90;;;;;;;;;;5088087;28;20051;-51
2022/12/10 10:39:32;;;;;;;25.73;14.80;;;;;;;;;;5088007;28;20392;-52
2022/12/10 10:41:59;;;;;;;32.38;18.63;;;;;;;;;;5087618;28;20722;-49
2022/12/10 10:44:34;;;;;;;29.45;16.52;;;;;;;;;;5087935;28;20061;-51
2022/12/10 10:47:02;;;;;;;26.05;15.80;;;;;;;;;;5087613;28;20407;-51
2022/12/10 10:49:31;;;;;;;25.52;14.57;;;;;;;;;;5087755;28;20020;-51
2022/12/10 10:52:01;;;;;;;22.75;12.80;;;;;;;;;;5087614;28;20384;-50
2022/12/10 10:54:40;;;;;;;21.48;13.07;;;;;;;;;;5087665;28;20035;-51
2022/12/10 10:57:15;;;;;;;21.67;12.13;;;;;;;;;;5087572;28;20028;-50
2022/12/10 10:59:41;;;;;;;23.95;13.10;;;;;;;;;;5087276;28;20059;-52
2022/12/10 11:02:16;;;;;;;26.00;13.68;;;;;;;;;;5087414;28;20016;-49
2022/12/10 11:04:49;;;;;;;27.73;14.38;;;;;;;;;;5087363;28;20032;-49
2022/12/10 11:07:22;;;;;;;23.67;13.52;;;;;;;;;;5104998;28;20039;-51
2022/12/10 11:09:48;;;;;;;20.55;12.18;;;;;;;;;;5106738;28;20020;-49
2022/12/10 11:12:23;;;;;;;17.95;10.95;;;;;;;;;;5092649;28;20634;-51
2022/12/10 11:14:49;;;;;;;15.70;9.75;;;;;;;;;;5103783;28;20081;-51
2022/12/10 11:17:19;;;;;;;14.68;8.95;;;;;;;;;;5095443;28;20015;-53
2022/12/10 11:19:53;;;;;;;16.10;10.07;;;;;;;;;;5107292;28;20465;-52
2022/12/10 11:22:28;;;;;;;16.25;10.00;;;;;;;;;;5094544;28;20024;-51
2022/12/10 11:24:54;;;;;;;15.93;9.75;;;;;;;;;;5069564;28;20266;-51
2022/12/10 11:27:39;;;;;;;17.55;11.05;;;;;;;;;;5087288;28;20032;-53
2022/12/10 11:30:09;;;;;;;16.35;10.07;;;;;;;;;;5086811;28;20139;-49
2022/12/10 11:32:41;;;;;;;15.18;9.70;;;;;;;;;;5087181;28;20083;-50
2022/12/10 11:35:13;;;;;;;15.10;9.30;;;;;;;;;;5098994;28;20032;-51
2022/12/10 11:37:57;;;;;;;16.80;10.07;;;;;;;;;;5104110;28;20101;-50
2022/12/10 11:40:23;;;;;;;;;;;;;;;;;;5090067;28;20036;-58
2022/12/10 11:43:16;;;;;;;14.05;8.55;;;;;;;;;;5099031;28;19914;-49
2022/12/10 11:46:00;;;;;;;12.52;8.32;;;;;;;;;;5094700;28;20100;-48
2022/12/10 11:48:41;;;;;;;13.57;8.48;;;;;;;;;;5096371;28;20076;-48
2022/12/10 11:51:27;;;;;;;10.20;6.78;;;;;;;;;;5105231;28;20020;-48
2022/12/10 11:54:05;;;;;;;12.02;7.35;;;;;;;;;;5098891;28;20068;-50
2022/12/10 11:56:52;;;;;;;11.32;7.28;;;;;;;;;;5108663;28;20020;-47
2022/12/10 11:59:18;;;;;;;10.25;6.75;;;;;;;;;;5087991;28;20131;-50
2022/12/10 12:01:47;;;;;;;9.52;5.63;;;;;;;;;;5088274;28;20012;-51
2022/12/10 12:04:32;;;;;;;9.10;6.28;;;;;;;;;;5088125;28;20024;-50
2022/12/10 12:06:58;;;;;;;8.25;5.50;;;;;;;;;;5088204;28;20024;-47
2022/12/10 12:09:38;;;;;;;13.60;7.53;;;;;;;;;;5092785;28;20546;-49
2022/12/10 12:12:19;;;;;;;14.15;8.13;;;;;;;;;;5108398;28;20095;-48
2022/12/10 12:14:54;;;;;;;12.10;6.55;;;;;;;;;;5108336;28;20032;-47
2022/12/10 12:17:26;;;;;;;10.45;6.13;;;;;;;;;;5108610;28;20095;-53
2022/12/10 12:19:52;;;;;;;10.82;6.50;;;;;;;;;;5108792;28;20035;-51
2022/12/10 12:22:29;;;;;;;10.27;6.45;;;;;;;;;;5095283;28;20027;-51
2022/12/10 12:25:00;;;;;;;9.63;6.15;;;;;;;;;;5077524;28;20825;-51
2022/12/10 12:27:35;;;;;;;10.63;6.28;;;;;;;;;;5093279;28;20108;-49
2022/12/10 12:30:06;;;;;;;11.55;6.60;;;;;;;;;;5107704;28;20044;-53
2022/12/10 12:32:39;;;;;;;11.23;6.93;;;;;;;;;;5108561;28;20027;-51
2022/12/10 12:35:15;;;;;;;11.27;6.75;;;;;;;;;;5107273;28;20027;-49
2022/12/10 12:37:46;;;;;;;11.40;7.03;;;;;;;;;;5111873;28;20437;-52
2022/12/10 12:40:35;;;;;;;11.90;7.28;;;;;;;;;;5093752;28;20051;-52
2022/12/10 12:43:09;;;;;;;11.63;7.30;;;;;;;;;;5057347;28;20051;-53
2022/12/10 12:45:35;;;;;;;9.98;6.80;;;;;;;;;;5107172;28;20134;-57
2022/12/10 12:48:02;;;;;;;15.70;9.10;;;;;;;;;;5101905;28;20036;-48
